createdAt,value
2022-10-21T00:01:03.422Z,4.90
2022-10-21T00:03:31.482Z,4.90
2022-10-21T00:05:59.726Z,4.90
2022-10-21T00:08:29.419Z,4.90
2022-10-21T00:10:58.794Z,4.90
2022-10-21T00:13:28.152Z,4.90
2022-10-21T00:16:00.137Z,5.00
2022-10-21T00:18:28.677Z,4.90
2022-10-21T00:20:56.982Z,4.90
2022-10-21T00:23:25.059Z,4.90
2022-10-21T00:26:01.029Z,5.00
2022-10-21T00:28:29.326Z,4.90
2022-10-21T00:30:58.391Z,4.90
2022-10-21T00:33:27.059Z,4.80
2022-10-21T00:35:55.695Z,4.80
2022-10-21T00:38:23.806Z,4.80
2022-10-21T00:40:51.967Z,4.80
2022-10-21T00:43:21.665Z,4.80
2022-10-21T00:45:50.861Z,4.80
2022-10-21T00:48:22.792Z,4.80
2022-10-21T00:50:52.967Z,4.70
2022-10-21T00:53:22.125Z,4.80
2022-10-21T00:55:52.622Z,4.70
2022-10-21T00:58:23.477Z,4.70
2022-10-21T01:00:52.841Z,4.80
2022-10-21T01:03:21.240Z,4.70
2022-10-21T01:08:19.925Z,4.80
2022-10-21T01:10:50.078Z,4.80
2022-10-21T01:13:23.436Z,4.90
2022-10-21T01:15:57.199Z,4.90
2022-10-21T01:18:28.626Z,5.00
2022-10-21T01:21:01.727Z,5.00
2022-10-21T01:23:40.926Z,5.00
2022-10-21T01:26:30.365Z,5.10
2022-10-21T01:29:08.048Z,5.10
2022-10-21T01:31:40.865Z,5.20
2022-10-21T01:34:14.053Z,5.00
2022-10-21T01:36:44.695Z,5.20
2022-10-21T01:39:16.257Z,5.20
2022-10-21T01:41:46.307Z,5.20
2022-10-21T01:44:17.427Z,5.20
2022-10-21T01:46:48.998Z,5.20
2022-10-21T01:49:19.566Z,5.30
2022-10-21T01:51:47.790Z,5.30
2022-10-21T01:54:20.374Z,5.40
2022-10-21T01:56:49.933Z,5.40
2022-10-21T01:59:18.954Z,5.40
2022-10-21T02:01:48.872Z,5.50
2022-10-21T02:04:18.884Z,5.60
2022-10-21T02:06:47.165Z,5.50
2022-10-21T02:09:15.255Z,5.60
2022-10-21T02:11:44.801Z,5.70
2022-10-21T02:14:15.299Z,5.60
2022-10-21T02:16:44.007Z,5.80
2022-10-21T02:19:14.998Z,5.70
2022-10-21T02:21:43.851Z,5.70
2022-10-21T02:24:14.802Z,5.80
2022-10-21T02:26:42.975Z,5.80
2022-10-21T02:29:11.155Z,5.70
2022-10-21T02:31:44.371Z,5.80
2022-10-21T02:34:18.474Z,5.80
2022-10-21T02:36:51.160Z,5.80
2022-10-21T02:39:21.229Z,5.80
2022-10-21T02:41:49.874Z,5.80
2022-10-21T02:44:18.127Z,6.40
2022-10-21T02:46:48.441Z,5.90
2022-10-21T02:49:18.006Z,5.80
2022-10-21T02:51:46.529Z,5.80
2022-10-21T02:54:14.694Z,5.80
2022-10-21T02:56:42.828Z,5.90
2022-10-21T02:59:11.323Z,6.00
2022-10-21T03:01:39.423Z,5.90
2022-10-21T03:04:07.657Z,5.90
2022-10-21T03:06:37.441Z,5.90
2022-10-21T03:09:06.359Z,5.90
2022-10-21T03:11:34.505Z,5.90
2022-10-21T03:14:02.662Z,5.90
2022-10-21T03:16:30.983Z,5.90
2022-10-21T03:18:59.032Z,5.80
2022-10-21T03:21:27.318Z,5.90
2022-10-21T03:23:56.973Z,5.90
2022-10-21T03:26:25.086Z,5.90
2022-10-21T03:28:53.387Z,5.90
2022-10-21T03:31:21.439Z,5.90
2022-10-21T03:33:49.626Z,5.90
2022-10-21T03:36:17.763Z,5.90
2022-10-21T03:38:45.879Z,5.90
2022-10-21T03:41:15.648Z,5.90
2022-10-21T03:43:43.690Z,5.90
2022-10-21T03:46:11.928Z,5.90
2022-10-21T03:48:40.031Z,5.90
2022-10-21T03:51:08.198Z,5.90
2022-10-21T03:53:43.400Z,5.80
2022-10-21T03:56:12.120Z,5.80
2022-10-21T03:58:42.091Z,5.80
2022-10-21T04:01:12.171Z,5.80
2022-10-21T04:03:40.433Z,5.70
2022-10-21T04:06:08.595Z,5.70
2022-10-21T04:08:36.795Z,5.70
2022-10-21T04:11:05.122Z,5.70
2022-10-21T04:13:33.496Z,5.60
2022-10-21T04:16:04.109Z,5.60
2022-10-21T04:18:32.212Z,5.70
2022-10-21T04:21:00.370Z,5.60
2022-10-21T04:23:28.544Z,5.60
2022-10-21T04:25:56.813Z,5.60
2022-10-21T04:28:24.845Z,5.50
2022-10-21T04:30:53.234Z,5.60
2022-10-21T04:33:22.804Z,5.60
2022-10-21T04:35:50.986Z,5.50
2022-10-21T04:38:19.035Z,5.50
2022-10-21T04:40:47.154Z,5.40
2022-10-21T04:43:15.251Z,5.40
2022-10-21T04:45:43.455Z,5.30
2022-10-21T04:48:13.677Z,5.30
2022-10-21T04:50:43.349Z,5.20
2022-10-21T04:53:11.808Z,5.20
2022-10-21T04:55:40.404Z,5.10
2022-10-21T04:58:08.497Z,5.10
2022-10-21T05:00:36.753Z,5.10
2022-10-21T05:03:05.205Z,5.00
2022-10-21T05:05:33.510Z,5.00
2022-10-21T05:08:02.966Z,4.90
2022-10-21T05:10:31.271Z,4.80
2022-10-21T05:12:59.398Z,4.80
2022-10-21T05:15:27.784Z,4.80
2022-10-21T05:17:55.849Z,4.70
2022-10-21T05:20:24.031Z,4.60
2022-10-21T05:22:52.509Z,4.70
2022-10-21T05:25:23.654Z,4.80
2022-10-21T05:27:53.779Z,4.70
2022-10-21T05:30:21.806Z,4.60
2022-10-21T05:32:50.018Z,4.60
2022-10-21T05:35:18.070Z,4.50
2022-10-21T05:37:46.326Z,4.60
2022-10-21T05:40:14.441Z,4.60
2022-10-21T05:42:43.946Z,4.70
2022-10-21T05:45:12.554Z,4.60
2022-10-21T05:47:42.257Z,4.60
2022-10-21T05:50:11.313Z,4.70
2022-10-21T05:52:39.638Z,4.60
2022-10-21T05:55:09.207Z,4.50
2022-10-21T05:57:37.926Z,4.50
2022-10-21T06:00:08.334Z,4.50
2022-10-21T06:02:36.953Z,4.50
2022-10-21T06:05:05.578Z,4.50
2022-10-21T06:07:33.826Z,4.60
2022-10-21T06:10:01.905Z,4.60
2022-10-21T06:12:30.131Z,4.70
2022-10-21T06:14:59.409Z,4.70
2022-10-21T06:17:28.993Z,4.60
2022-10-21T06:19:57.037Z,4.60
2022-10-21T06:22:25.215Z,4.60
2022-10-21T06:24:53.290Z,4.70
2022-10-21T06:27:24.675Z,4.60
2022-10-21T06:29:52.949Z,4.60
2022-10-21T06:32:21.006Z,4.60
2022-10-21T06:34:50.642Z,4.70
2022-10-21T06:37:18.700Z,4.60
2022-10-21T06:39:46.942Z,4.70
2022-10-21T06:42:17.441Z,4.70
2022-10-21T06:44:45.497Z,4.70
2022-10-21T06:47:13.783Z,4.70
2022-10-21T06:49:41.854Z,4.70
2022-10-21T06:52:13.834Z,4.70
2022-10-21T06:54:42.018Z,4.70
2022-10-21T06:57:10.659Z,4.80
2022-10-21T06:59:38.947Z,4.70
2022-10-21T07:02:07.008Z,4.70
2022-10-21T07:04:35.133Z,4.70
2022-10-21T07:07:03.224Z,4.70
2022-10-21T07:09:32.967Z,4.70
2022-10-21T07:12:02.273Z,4.60
2022-10-21T07:14:30.701Z,4.70
2022-10-21T07:16:58.760Z,4.70
2022-10-21T07:19:27.139Z,4.70
2022-10-21T07:21:55.192Z,4.70
2022-10-21T07:24:25.451Z,4.70
2022-10-21T07:26:55.009Z,4.70
2022-10-21T07:29:23.606Z,4.80
2022-10-21T07:31:54.841Z,4.80
2022-10-21T07:34:23.090Z,4.80
2022-10-21T07:36:53.006Z,4.80
2022-10-21T07:39:23.190Z,4.80
2022-10-21T07:41:52.303Z,4.80
2022-10-21T07:44:22.475Z,4.80
2022-10-21T07:46:50.914Z,4.90
2022-10-21T07:49:19.774Z,4.70
2022-10-21T07:51:50.170Z,4.70
2022-10-21T07:54:21.875Z,4.70
2022-10-21T07:56:50.763Z,4.70
2022-10-21T07:59:19.162Z,4.70
2022-10-21T08:04:19.137Z,4.70
2022-10-21T08:06:47.895Z,4.70
2022-10-21T08:09:16.798Z,4.70
2022-10-21T08:11:45.500Z,4.60
2022-10-21T08:14:14.060Z,4.70
2022-10-21T08:16:44.451Z,4.70
2022-10-21T08:19:18.519Z,4.70
2022-10-21T08:21:49.511Z,4.70
2022-10-21T08:24:17.876Z,4.80
2022-10-21T08:26:45.959Z,4.80
2022-10-21T08:29:14.035Z,4.90
2022-10-21T08:31:42.563Z,4.90
2022-10-21T08:34:10.971Z,5.00
2022-10-21T08:36:40.687Z,5.10
2022-10-21T08:39:09.006Z,5.10
2022-10-21T08:41:43.173Z,5.20
2022-10-21T08:44:15.946Z,5.20
2022-10-21T08:46:47.813Z,5.20
2022-10-21T08:49:21.808Z,5.20
2022-10-21T08:51:57.389Z,5.20
2022-10-21T08:54:27.334Z,5.30
2022-10-21T08:56:56.623Z,5.40
2022-10-21T08:59:26.215Z,5.40
2022-10-21T09:01:58.865Z,5.50
2022-10-21T09:04:31.337Z,5.40
2022-10-21T09:07:04.155Z,5.40
2022-10-21T09:09:35.544Z,5.40
2022-10-21T09:12:05.377Z,5.50
2022-10-21T09:14:43.107Z,5.60
2022-10-21T09:17:19.112Z,5.60
2022-10-21T09:19:51.052Z,5.70
2022-10-21T09:22:35.979Z,5.80
2022-10-21T09:25:07.611Z,5.80
2022-10-21T09:27:51.409Z,5.90
2022-10-21T09:30:23.593Z,5.90
2022-10-21T09:32:52.936Z,6.00
2022-10-21T09:35:24.603Z,5.90
2022-10-21T09:37:55.999Z,6.00
2022-10-21T09:40:25.263Z,6.20
2022-10-21T09:42:55.920Z,6.10
2022-10-21T09:45:34.592Z,6.20
2022-10-21T09:48:04.631Z,5.80
2022-10-21T09:50:33.604Z,6.00
2022-10-21T09:53:05.747Z,6.10
2022-10-21T09:55:34.425Z,5.90
2022-10-21T09:58:03.974Z,6.20
2022-10-21T10:00:42.584Z,6.20
2022-10-21T10:03:12.958Z,6.50
2022-10-21T10:05:43.609Z,6.40
2022-10-21T10:08:29.607Z,6.50
2022-10-21T10:11:06.342Z,6.50
2022-10-21T10:13:34.383Z,6.50
2022-10-21T10:16:16.769Z,6.50
2022-10-21T10:18:45.899Z,6.60
2022-10-21T10:21:14.976Z,6.40
2022-10-21T10:23:44.309Z,6.60
2022-10-21T10:26:18.166Z,6.60
2022-10-21T10:28:49.743Z,6.70
2022-10-21T10:31:24.386Z,6.60
2022-10-21T10:33:58.808Z,6.70
2022-10-21T10:36:30.023Z,6.80
2022-10-21T10:38:59.145Z,6.80
2022-10-21T10:41:32.671Z,6.70
2022-10-21T10:44:00.909Z,6.90
2022-10-21T10:46:30.334Z,6.80
2022-10-21T10:48:59.378Z,7.00
2022-10-21T10:51:28.773Z,6.80
2022-10-21T10:54:18.181Z,6.90
2022-10-21T10:56:49.790Z,7.10
2022-10-21T10:59:22.367Z,7.00
2022-10-21T11:01:53.461Z,7.10
2022-10-21T11:04:24.809Z,7.30
2022-10-21T11:06:55.045Z,7.30
2022-10-21T11:09:27.312Z,7.40
2022-10-21T11:11:57.146Z,7.40
2022-10-21T11:14:25.451Z,7.40
2022-10-21T11:17:06.475Z,7.50
2022-10-21T11:19:37.006Z,7.60
2022-10-21T11:22:09.988Z,7.40
2022-10-21T11:24:50.954Z,7.60
2022-10-21T11:27:25.887Z,7.80
2022-10-21T11:30:01.093Z,7.70
2022-10-21T11:32:46.688Z,7.60
2022-10-21T11:35:19.215Z,7.80
2022-10-21T11:37:51.637Z,7.90
2022-10-21T11:40:27.610Z,7.80
2022-10-21T11:43:00.872Z,7.70
2022-10-21T11:45:39.029Z,7.60
2022-10-21T11:48:13.727Z,7.50
2022-10-21T11:50:45.286Z,7.50
2022-10-21T11:55:44.803Z,7.60
2022-10-21T11:58:25.859Z,7.30
2022-10-21T12:00:57.407Z,7.40
2022-10-21T12:03:46.167Z,7.40
2022-10-21T12:06:20.338Z,7.40
2022-10-21T12:08:51.781Z,7.50
2022-10-21T12:11:25.208Z,7.50
2022-10-21T12:13:57.218Z,7.60
2022-10-21T12:16:27.471Z,7.80
2022-10-21T12:18:56.942Z,8.20
2022-10-21T12:21:26.157Z,8.20
2022-10-21T12:24:20.102Z,8.00
2022-10-21T12:26:52.805Z,7.80
2022-10-21T12:29:26.127Z,7.80
2022-10-21T12:31:57.766Z,7.80
2022-10-21T12:34:26.264Z,8.20
2022-10-21T12:36:55.023Z,8.30
2022-10-21T12:39:52.997Z,8.30
2022-10-21T12:42:25.369Z,8.30
2022-10-21T12:44:54.973Z,8.20
2022-10-21T12:47:27.687Z,8.30
2022-10-21T12:50:06.698Z,8.20
2022-10-21T12:52:38.764Z,8.10
2022-10-21T12:55:08.860Z,7.90
2022-10-21T12:57:38.533Z,8.00
2022-10-21T13:00:38.620Z,8.10
2022-10-21T13:03:08.046Z,8.30
2022-10-21T13:06:02.226Z,8.10
2022-10-21T13:08:38.250Z,8.10
2022-10-21T13:11:22.926Z,8.10
2022-10-21T13:14:12.625Z,8.00
2022-10-21T13:16:42.436Z,8.00
2022-10-21T13:19:29.286Z,7.90
2022-10-21T13:22:02.055Z,7.90
2022-10-21T13:24:32.563Z,7.90
2022-10-21T13:27:02.086Z,8.00
2022-10-21T13:29:35.023Z,8.20
2022-10-21T13:32:32.853Z,8.20
2022-10-21T13:35:19.425Z,8.20
2022-10-21T13:37:54.669Z,8.20
2022-10-21T13:40:24.708Z,8.20
2022-10-21T13:42:56.806Z,8.30
2022-10-21T13:45:27.017Z,8.30
2022-10-21T13:48:08.471Z,8.40
2022-10-21T13:50:39.756Z,8.40
2022-10-21T13:53:21.115Z,8.40
2022-10-21T13:55:54.971Z,8.40
2022-10-21T13:58:23.767Z,8.30
2022-10-21T14:00:57.780Z,8.20
2022-10-21T14:03:28.155Z,8.10
2022-10-21T14:05:58.324Z,8.00
2022-10-21T14:08:29.223Z,7.80
2022-10-21T14:10:59.237Z,7.90
2022-10-21T14:13:30.145Z,7.90
2022-10-21T14:15:59.898Z,7.80
2022-10-21T14:18:32.388Z,7.70
2022-10-21T14:21:04.838Z,7.70
2022-10-21T14:23:37.618Z,7.60
2022-10-21T14:26:09.800Z,7.50
2022-10-21T14:28:38.285Z,7.50
2022-10-21T14:33:43.422Z,7.40
2022-10-21T14:36:14.968Z,7.30
2022-10-21T14:38:55.602Z,7.20
2022-10-21T14:41:25.787Z,7.20
2022-10-21T14:43:54.400Z,7.10
2022-10-21T14:46:22.856Z,6.90
2022-10-21T14:48:53.716Z,6.90
2022-10-21T14:51:22.730Z,6.80
2022-10-21T14:53:54.969Z,6.80
2022-10-21T14:56:25.063Z,6.80
2022-10-21T14:58:54.825Z,6.70
2022-10-21T15:01:23.691Z,6.60
2022-10-21T15:03:52.998Z,6.30
2022-10-21T15:06:22.381Z,6.20
2022-10-21T15:09:07.976Z,6.40
2022-10-21T15:11:38.048Z,6.30
2022-10-21T15:14:18.858Z,6.20
2022-10-21T15:16:47.941Z,6.20
2022-10-21T15:19:18.062Z,6.10
2022-10-21T15:21:48.153Z,6.00
2022-10-21T15:24:20.454Z,5.90
2022-10-21T15:26:49.562Z,5.80
2022-10-21T15:29:24.005Z,5.80
2022-10-21T15:31:53.503Z,5.70
2022-10-21T15:34:22.450Z,5.70
2022-10-21T15:36:50.734Z,5.50
2022-10-21T15:39:23.406Z,5.50
2022-10-21T15:41:55.234Z,5.40
2022-10-21T15:44:26.065Z,5.20
2022-10-21T15:46:58.260Z,5.30
2022-10-21T15:49:27.474Z,5.20
2022-10-21T15:51:55.522Z,5.20
2022-10-21T15:54:25.767Z,5.10
2022-10-21T15:56:55.193Z,5.00
2022-10-21T15:59:24.890Z,5.00
2022-10-21T16:01:53.903Z,4.90
2022-10-21T16:04:22.635Z,4.90
2022-10-21T16:06:51.334Z,4.80
2022-10-21T16:09:21.138Z,4.70
2022-10-21T16:11:59.232Z,4.70
2022-10-21T16:14:29.386Z,4.70
2022-10-21T16:16:58.400Z,4.50
2022-10-21T16:19:26.726Z,4.50
2022-10-21T16:21:54.900Z,4.50
2022-10-21T16:24:23.109Z,4.50
2022-10-21T16:26:55.450Z,4.40
2022-10-21T16:29:24.254Z,4.40
2022-10-21T16:31:52.984Z,4.30
2022-10-21T16:34:21.249Z,4.30
2022-10-21T16:36:49.367Z,4.30
2022-10-21T16:39:18.402Z,4.20
2022-10-21T16:41:46.496Z,4.20
2022-10-21T16:44:16.717Z,4.20
2022-10-21T16:46:50.570Z,4.10
2022-10-21T16:49:21.135Z,4.20
2022-10-21T16:51:49.520Z,4.10
2022-10-21T16:54:17.878Z,4.00
2022-10-21T16:56:46.467Z,4.10
2022-10-21T16:59:16.201Z,4.00
2022-10-21T17:01:44.418Z,4.00
2022-10-21T17:04:14.624Z,3.90
2022-10-21T17:06:42.696Z,3.90
2022-10-21T17:09:11.038Z,3.90
2022-10-21T17:11:40.166Z,3.80
2022-10-21T17:14:09.561Z,3.80
2022-10-21T17:16:40.131Z,3.60
2022-10-21T17:19:08.634Z,3.70
2022-10-21T17:21:36.781Z,3.70
2022-10-21T17:24:05.557Z,3.70
2022-10-21T17:26:35.151Z,3.50
2022-10-21T17:29:03.313Z,3.60
2022-10-21T17:31:31.907Z,3.60
2022-10-21T17:34:06.440Z,2.50
2022-10-21T17:36:34.575Z,3.50
2022-10-21T17:39:02.654Z,2.80
2022-10-21T17:41:30.893Z,3.40
2022-10-21T17:44:01.985Z,3.40
2022-10-21T17:46:30.153Z,3.50
2022-10-21T17:48:58.922Z,3.50
2022-10-21T17:51:30.318Z,3.40
2022-10-21T17:53:59.382Z,3.20
2022-10-21T17:56:27.593Z,3.20
2022-10-21T17:58:56.989Z,3.30
2022-10-21T18:01:26.191Z,3.20
2022-10-21T18:03:54.887Z,3.30
2022-10-21T18:06:22.933Z,3.20
2022-10-21T18:08:55.221Z,3.10
2022-10-21T18:11:23.329Z,3.20
2022-10-21T18:13:55.165Z,3.10
2022-10-21T18:16:24.808Z,3.00
2022-10-21T18:18:56.142Z,3.00
2022-10-21T18:21:26.786Z,3.00
2022-10-21T18:23:56.554Z,3.00
2022-10-21T18:26:26.295Z,3.00
2022-10-21T18:28:57.170Z,3.00
2022-10-21T18:31:26.319Z,3.00
2022-10-21T18:33:55.126Z,2.90
2022-10-21T18:36:23.543Z,3.00
2022-10-21T18:38:51.887Z,2.90
2022-10-21T18:41:21.638Z,2.80
2022-10-21T18:43:50.432Z,2.90
2022-10-21T18:46:19.038Z,2.90
2022-10-21T18:48:47.421Z,2.80
2022-10-21T18:51:16.886Z,2.80
2022-10-21T18:53:48.524Z,2.70
2022-10-21T18:56:18.757Z,2.70
2022-10-21T18:58:48.301Z,2.60
2022-10-21T19:01:17.001Z,2.60
2022-10-21T19:03:45.811Z,2.70
2022-10-21T19:06:19.202Z,2.60
2022-10-21T19:08:47.602Z,2.60
2022-10-21T19:11:15.841Z,2.60
2022-10-21T19:13:43.881Z,2.60
2022-10-21T19:16:13.832Z,2.50
2022-10-21T19:18:41.969Z,2.50
2022-10-21T19:21:10.193Z,2.50
2022-10-21T19:23:38.259Z,2.50
2022-10-21T19:26:09.533Z,2.50
2022-10-21T19:28:39.154Z,2.50
2022-10-21T19:31:07.395Z,2.50
2022-10-21T19:33:37.081Z,2.50
2022-10-21T19:36:05.801Z,2.40
2022-10-21T19:38:49.770Z,2.40
2022-10-21T19:41:20.267Z,2.40
2022-10-21T19:43:51.860Z,2.20
2022-10-21T19:46:23.545Z,2.30
2022-10-21T19:48:55.295Z,2.20
2022-10-21T19:51:24.245Z,2.10
2022-10-21T19:53:52.812Z,2.20
2022-10-21T19:56:25.620Z,2.30
2022-10-21T19:58:55.437Z,2.20
2022-10-21T20:01:24.630Z,2.10
2022-10-21T20:03:53.562Z,1.90
2022-10-21T20:06:24.229Z,2.00
2022-10-21T20:08:54.435Z,2.10
2022-10-21T20:11:23.193Z,2.00
2022-10-21T20:13:51.638Z,2.00
2022-10-21T20:16:22.249Z,2.00
2022-10-21T20:18:50.482Z,2.00
2022-10-21T20:21:21.212Z,2.00
2022-10-21T20:23:53.906Z,2.00
2022-10-21T20:26:22.765Z,2.00
2022-10-21T20:28:51.060Z,2.10
2022-10-21T20:31:19.457Z,2.10
2022-10-21T20:33:48.754Z,2.10
2022-10-21T20:36:18.977Z,2.10
2022-10-21T20:38:47.342Z,2.00
2022-10-21T20:41:26.722Z,1.90
2022-10-21T20:43:55.537Z,2.00
2022-10-21T20:46:24.835Z,1.90
2022-10-21T20:48:53.918Z,1.90
2022-10-21T20:51:23.949Z,1.90
2022-10-21T20:53:53.111Z,1.90
2022-10-21T20:56:23.139Z,2.00
2022-10-21T20:58:51.185Z,2.00
2022-10-21T21:01:22.328Z,2.00
2022-10-21T21:03:50.750Z,1.90
2022-10-21T21:06:19.302Z,1.90
2022-10-21T21:08:53.345Z,1.90
2022-10-21T21:11:37.315Z,1.80
2022-10-21T21:14:05.645Z,1.80
2022-10-21T21:16:33.849Z,1.70
2022-10-21T21:19:04.122Z,1.90
2022-10-21T21:21:33.184Z,1.90
2022-10-21T21:24:01.273Z,1.90
2022-10-21T21:26:32.513Z,1.90
2022-10-21T21:29:02.287Z,1.80
2022-10-21T21:31:31.057Z,1.80
2022-10-21T21:33:59.677Z,1.90
2022-10-21T21:36:27.746Z,1.80
2022-10-21T21:38:56.063Z,1.80
2022-10-21T21:41:25.817Z,1.80
2022-10-21T21:43:54.527Z,1.80
2022-10-21T21:46:24.693Z,1.90
2022-10-21T21:48:55.350Z,1.80
2022-10-21T21:51:26.302Z,1.80
2022-10-21T21:53:55.788Z,1.80
2022-10-21T21:56:26.022Z,1.90
2022-10-21T21:58:55.875Z,1.80
2022-10-21T22:01:29.055Z,1.90
2022-10-21T22:03:57.761Z,1.80
2022-10-21T22:09:00.535Z,1.80
2022-10-21T22:11:30.335Z,1.80
2022-10-21T22:13:58.640Z,1.80
2022-10-21T22:16:30.364Z,1.80
2022-10-21T22:18:59.875Z,1.90
2022-10-21T22:21:28.314Z,1.80
2022-10-21T22:23:56.429Z,1.70
2022-10-21T22:26:26.911Z,1.70
2022-10-21T22:28:55.226Z,2.00
2022-10-21T22:31:28.952Z,1.90
2022-10-21T22:34:00.800Z,1.80
2022-10-21T22:36:28.952Z,1.60
2022-10-21T22:38:57.029Z,1.70
2022-10-21T22:41:25.107Z,1.70
2022-10-21T22:43:53.256Z,1.70
2022-10-21T22:46:33.354Z,1.70
2022-10-21T22:49:06.437Z,1.60
2022-10-21T22:51:34.982Z,1.50
2022-10-21T22:54:03.024Z,1.70
2022-10-21T22:56:32.262Z,1.60
2022-10-21T22:59:00.598Z,1.70
2022-10-21T23:01:30.525Z,1.60
2022-10-21T23:04:02.601Z,1.40
2022-10-21T23:06:32.635Z,1.50
2022-10-21T23:09:00.991Z,1.60
2022-10-21T23:11:29.688Z,1.70
2022-10-21T23:14:03.162Z,1.60
2022-10-21T23:16:36.082Z,1.40
2022-10-21T23:19:04.423Z,1.50
2022-10-21T23:21:34.026Z,1.50
2022-10-21T23:24:02.183Z,1.60
2022-10-21T23:26:30.309Z,1.50
2022-10-21T23:28:58.481Z,1.50
2022-10-21T23:31:26.546Z,1.50
2022-10-21T23:33:54.647Z,1.70
2022-10-21T23:36:22.951Z,1.70
2022-10-21T23:38:54.519Z,1.70
2022-10-21T23:41:23.279Z,1.70
2022-10-21T23:43:51.335Z,1.70
2022-10-21T23:46:19.516Z,1.90
2022-10-21T23:48:47.640Z,1.60
2022-10-21T23:51:15.781Z,1.80
2022-10-21T23:53:43.838Z,1.80
2022-10-21T23:56:13.334Z,1.90
2022-10-21T23:58:41.618Z,2.00
